sensor_id;sensor_type;location;lat;lon;timestamp;pressure;altitude;pressure_sealevel;temperature;humidity
4745;BME280;2386;42.138;24.746;2023-08-12T00:01:05;99973.44;;;23.82;57.55
4745;BME280;2386;42.138;24.746;2023-08-12T00:03:30;99970.16;;;23.80;57.18
4745;BME280;2386;42.138;24.746;2023-08-12T00:05:57;99972.22;;;23.88;57.22
4745;BME280;2386;42.138;24.746;2023-08-12T00:08:25;99975.09;;;23.83;56.97
4745;BME280;2386;42.138;24.746;2023-08-12T00:10:51;99978.63;;;23.75;57.31
4745;BME280;2386;42.138;24.746;2023-08-12T00:13:16;99969.50;;;23.61;57.76
4745;BME280;2386;42.138;24.746;2023-08-12T00:15:43;99970.19;;;23.52;58.06
4745;BME280;2386;42.138;24.746;2023-08-12T00:18:08;99962.81;;;23.48;58.31
4745;BME280;2386;42.138;24.746;2023-08-12T00:20:34;99968.94;;;23.45;58.94
4745;BME280;2386;42.138;24.746;2023-08-12T00:22:59;99966.91;;;23.50;59.05
4745;BME280;2386;42.138;24.746;2023-08-12T00:25:25;99965.78;;;23.51;58.12
4745;BME280;2386;42.138;24.746;2023-08-12T00:27:50;99971.00;;;23.53;58.40
4745;BME280;2386;42.138;24.746;2023-08-12T00:30:16;99971.66;;;23.64;58.05
4745;BME280;2386;42.138;24.746;2023-08-12T00:32:41;99966.63;;;23.66;58.02
4745;BME280;2386;42.138;24.746;2023-08-12T00:38:28;99966.88;;;23.78;57.44
4745;BME280;2386;42.138;24.746;2023-08-12T00:40:54;99973.66;;;23.85;57.10
4745;BME280;2386;42.138;24.746;2023-08-12T00:43:19;99965.66;;;23.84;57.64
4745;BME280;2386;42.138;24.746;2023-08-12T00:45:45;99959.84;;;23.72;57.19
4745;BME280;2386;42.138;24.746;2023-08-12T00:48:10;99963.13;;;23.74;57.33
4745;BME280;2386;42.138;24.746;2023-08-12T00:50:36;99959.75;;;23.77;58.06
4745;BME280;2386;42.138;24.746;2023-08-12T00:53:03;99956.97;;;23.77;58.78
4745;BME280;2386;42.138;24.746;2023-08-12T00:55:31;99958.47;;;23.83;57.74
4745;BME280;2386;42.138;24.746;2023-08-12T00:57:57;99953.13;;;23.86;57.64
4745;BME280;2386;42.138;24.746;2023-08-12T01:00:22;99959.81;;;23.85;57.74
4745;BME280;2386;42.138;24.746;2023-08-12T01:02:50;99943.72;;;23.74;57.32
4745;BME280;2386;42.138;24.746;2023-08-12T01:05:16;99944.72;;;23.78;57.80
4745;BME280;2386;42.138;24.746;2023-08-12T01:07:42;99950.59;;;23.76;57.74
4745;BME280;2386;42.138;24.746;2023-08-12T01:10:08;99950.09;;;23.74;57.24
4745;BME280;2386;42.138;24.746;2023-08-12T01:13:03;99952.25;;;23.50;58.06
4745;BME280;2386;42.138;24.746;2023-08-12T01:16:07;99951.31;;;23.41;58.59
4745;BME280;2386;42.138;24.746;2023-08-12T01:18:33;99953.78;;;23.42;58.46
4745;BME280;2386;42.138;24.746;2023-08-12T01:20:59;99955.19;;;23.26;59.73
4745;BME280;2386;42.138;24.746;2023-08-12T01:23:24;99952.34;;;23.31;59.92
4745;BME280;2386;42.138;24.746;2023-08-12T01:25:50;99946.38;;;23.24;60.52
4745;BME280;2386;42.138;24.746;2023-08-12T01:28:15;99954.59;;;23.29;59.90
4745;BME280;2386;42.138;24.746;2023-08-12T01:31:05;99944.34;;;23.30;60.05
4745;BME280;2386;42.138;24.746;2023-08-12T01:33:51;99956.84;;;23.27;61.05
4745;BME280;2386;42.138;24.746;2023-08-12T01:36:19;99968.09;;;23.17;61.56
4745;BME280;2386;42.138;24.746;2023-08-12T01:38:45;99967.16;;;23.08;61.73
4745;BME280;2386;42.138;24.746;2023-08-12T01:41:13;99970.94;;;22.84;62.52
4745;BME280;2386;42.138;24.746;2023-08-12T01:43:42;99963.00;;;22.78;63.03
4745;BME280;2386;42.138;24.746;2023-08-12T01:46:08;99955.59;;;22.73;63.51
4745;BME280;2386;42.138;24.746;2023-08-12T01:48:34;99956.59;;;22.82;63.80
4745;BME280;2386;42.138;24.746;2023-08-12T01:51:00;99948.94;;;22.74;63.16
4745;BME280;2386;42.138;24.746;2023-08-12T01:53:25;99957.72;;;22.81;63.38
4745;BME280;2386;42.138;24.746;2023-08-12T01:55:52;99955.41;;;22.70;63.91
4745;BME280;2386;42.138;24.746;2023-08-12T01:58:17;99953.06;;;22.77;64.38
4745;BME280;2386;42.138;24.746;2023-08-12T02:00:42;99966.25;;;22.66;63.81
4745;BME280;2386;42.138;24.746;2023-08-12T02:03:08;99957.22;;;22.42;65.31
4745;BME280;2386;42.138;24.746;2023-08-12T02:12:16;99948.69;;;22.24;66.58
4745;BME280;2386;42.138;24.746;2023-08-12T02:14:42;99951.59;;;22.14;66.64
4745;BME280;2386;42.138;24.746;2023-08-12T02:17:07;99942.28;;;22.10;67.25
4745;BME280;2386;42.138;24.746;2023-08-12T02:19:33;99950.03;;;22.08;66.80
4745;BME280;2386;42.138;24.746;2023-08-12T02:21:59;99951.78;;;21.99;66.99
4745;BME280;2386;42.138;24.746;2023-08-12T02:24:25;99952.03;;;22.03;66.46
4745;BME280;2386;42.138;24.746;2023-08-12T02:26:50;99950.81;;;21.90;67.13
4745;BME280;2386;42.138;24.746;2023-08-12T02:29:16;99943.41;;;21.85;67.47
4745;BME280;2386;42.138;24.746;2023-08-12T02:31:41;99962.31;;;21.97;67.33
4745;BME280;2386;42.138;24.746;2023-08-12T02:34:07;99963.63;;;22.05;66.42
4745;BME280;2386;42.138;24.746;2023-08-12T02:36:32;99961.19;;;21.98;66.37
4745;BME280;2386;42.138;24.746;2023-08-12T02:38:57;99964.47;;;22.00;66.15
4745;BME280;2386;42.138;24.746;2023-08-12T02:41:23;99968.38;;;21.99;66.32
4745;BME280;2386;42.138;24.746;2023-08-12T02:43:48;99967.13;;;22.10;66.12
4745;BME280;2386;42.138;24.746;2023-08-12T02:46:14;99968.56;;;22.08;65.71
4745;BME280;2386;42.138;24.746;2023-08-12T02:48:41;99959.56;;;21.97;65.72
4745;BME280;2386;42.138;24.746;2023-08-12T02:51:06;99969.31;;;22.13;65.14
4745;BME280;2386;42.138;24.746;2023-08-12T02:53:32;99971.53;;;22.11;65.29
4745;BME280;2386;42.138;24.746;2023-08-12T02:55:57;99968.72;;;22.16;65.68
4745;BME280;2386;42.138;24.746;2023-08-12T02:58:22;99966.63;;;22.08;64.90
4745;BME280;2386;42.138;24.746;2023-08-12T03:00:48;99972.97;;;22.09;65.14
4745;BME280;2386;42.138;24.746;2023-08-12T03:03:13;99969.06;;;22.10;64.86
4745;BME280;2386;42.138;24.746;2023-08-12T03:05:39;99964.66;;;22.09;65.17
4745;BME280;2386;42.138;24.746;2023-08-12T03:08:04;99969.81;;;22.15;64.71
4745;BME280;2386;42.138;24.746;2023-08-12T03:10:30;99972.59;;;22.15;64.65
4745;BME280;2386;42.138;24.746;2023-08-12T03:12:56;99980.22;;;22.23;64.24
4745;BME280;2386;42.138;24.746;2023-08-12T03:15:21;99969.69;;;22.25;64.08
4745;BME280;2386;42.138;24.746;2023-08-12T03:17:47;99975.25;;;22.39;62.83
4745;BME280;2386;42.138;24.746;2023-08-12T03:20:12;99981.00;;;22.43;63.27
4745;BME280;2386;42.138;24.746;2023-08-12T03:22:38;99987.56;;;22.47;62.82
4745;BME280;2386;42.138;24.746;2023-08-12T03:25:04;99983.22;;;22.41;63.89
4745;BME280;2386;42.138;24.746;2023-08-12T03:27:29;99967.47;;;22.41;63.08
4745;BME280;2386;42.138;24.746;2023-08-12T03:29:55;99971.34;;;22.40;63.01
4745;BME280;2386;42.138;24.746;2023-08-12T03:32:20;99969.84;;;22.48;62.48
4745;BME280;2386;42.138;24.746;2023-08-12T03:34:46;99967.69;;;22.45;62.41
4745;BME280;2386;42.138;24.746;2023-08-12T03:37:11;99970.06;;;22.51;62.04
4745;BME280;2386;42.138;24.746;2023-08-12T03:39:36;99979.78;;;22.49;62.30
4745;BME280;2386;42.138;24.746;2023-08-12T03:45:24;99977.09;;;22.44;62.75
4745;BME280;2386;42.138;24.746;2023-08-12T03:47:49;99985.09;;;22.45;62.44
4745;BME280;2386;42.138;24.746;2023-08-12T03:50:14;99985.09;;;22.45;62.36
4745;BME280;2386;42.138;24.746;2023-08-12T03:52:40;99988.38;;;22.47;62.84
4745;BME280;2386;42.138;24.746;2023-08-12T03:55:06;99990.19;;;22.38;62.94
4745;BME280;2386;42.138;24.746;2023-08-12T03:57:31;100000.03;;;22.44;62.92
4745;BME280;2386;42.138;24.746;2023-08-12T03:59:57;99996.47;;;22.44;62.83
4745;BME280;2386;42.138;24.746;2023-08-12T04:02:22;100000.72;;;22.36;62.99
4745;BME280;2386;42.138;24.746;2023-08-12T04:04:47;100000.59;;;22.27;63.88
4745;BME280;2386;42.138;24.746;2023-08-12T04:07:13;100005.34;;;22.41;63.75
4745;BME280;2386;42.138;24.746;2023-08-12T04:09:38;99999.44;;;22.47;63.27
4745;BME280;2386;42.138;24.746;2023-08-12T04:12:04;100001.38;;;22.47;62.52
4745;BME280;2386;42.138;24.746;2023-08-12T04:14:29;100009.09;;;22.50;62.98
4745;BME280;2386;42.138;24.746;2023-08-12T04:17:00;100003.56;;;22.50;62.47
4745;BME280;2386;42.138;24.746;2023-08-12T04:19:25;100004.81;;;22.39;62.77
4745;BME280;2386;42.138;24.746;2023-08-12T04:25:12;100010.88;;;22.41;62.90
4745;BME280;2386;42.138;24.746;2023-08-12T04:27:38;100015.63;;;22.21;64.39
4745;BME280;2386;42.138;24.746;2023-08-12T04:30:04;100007.63;;;22.20;64.96
4745;BME280;2386;42.138;24.746;2023-08-12T04:32:30;100011.72;;;22.04;65.90
4745;BME280;2386;42.138;24.746;2023-08-12T04:34:55;100027.03;;;22.15;66.11
4745;BME280;2386;42.138;24.746;2023-08-12T04:37:20;100013.44;;;22.18;65.92
4745;BME280;2386;42.138;24.746;2023-08-12T04:39:46;100022.78;;;22.22;65.44
4745;BME280;2386;42.138;24.746;2023-08-12T04:42:12;100018.00;;;22.09;66.07
4745;BME280;2386;42.138;24.746;2023-08-12T04:44:38;100017.25;;;22.04;65.82
4745;BME280;2386;42.138;24.746;2023-08-12T04:47:03;100021.88;;;22.08;66.30
4745;BME280;2386;42.138;24.746;2023-08-12T04:49:29;100025.63;;;22.17;66.08
4745;BME280;2386;42.138;24.746;2023-08-12T04:51:54;100030.63;;;22.15;66.70
4745;BME280;2386;42.138;24.746;2023-08-12T04:54:19;100031.38;;;22.21;66.85
4745;BME280;2386;42.138;24.746;2023-08-12T04:56:46;100026.97;;;22.20;67.19
4745;BME280;2386;42.138;24.746;2023-08-12T04:59:11;100028.38;;;22.17;67.86
4745;BME280;2386;42.138;24.746;2023-08-12T05:01:37;100022.84;;;22.17;67.81
4745;BME280;2386;42.138;24.746;2023-08-12T05:04:02;100030.38;;;22.30;68.00
4745;BME280;2386;42.138;24.746;2023-08-12T05:06:27;100033.44;;;22.29;68.30
4745;BME280;2386;42.138;24.746;2023-08-12T05:08:53;100027.31;;;22.32;69.02
4745;BME280;2386;42.138;24.746;2023-08-12T05:11:18;100027.63;;;22.30;68.91
4745;BME280;2386;42.138;24.746;2023-08-12T05:13:44;100035.59;;;22.32;68.46
4745;BME280;2386;42.138;24.746;2023-08-12T05:16:09;100030.31;;;22.36;68.85
4745;BME280;2386;42.138;24.746;2023-08-12T05:18:34;100031.56;;;22.43;68.96
4745;BME280;2386;42.138;24.746;2023-08-12T05:21:00;100033.00;;;22.41;68.58
4745;BME280;2386;42.138;24.746;2023-08-12T05:23:25;100024.25;;;22.34;69.06
4745;BME280;2386;42.138;24.746;2023-08-12T05:25:50;100029.13;;;22.42;68.77
4745;BME280;2386;42.138;24.746;2023-08-12T05:28:16;100035.16;;;22.44;68.36
4745;BME280;2386;42.138;24.746;2023-08-12T05:30:41;100028.22;;;22.46;68.10
4745;BME280;2386;42.138;24.746;2023-08-12T05:33:07;100040.84;;;22.52;67.50
4745;BME280;2386;42.138;24.746;2023-08-12T05:35:33;100035.84;;;22.54;67.81
4745;BME280;2386;42.138;24.746;2023-08-12T05:37:59;100028.75;;;22.48;67.87
4745;BME280;2386;42.138;24.746;2023-08-12T05:40:24;100041.06;;;22.56;67.50
4745;BME280;2386;42.138;24.746;2023-08-12T05:42:49;100039.34;;;22.60;67.57
4745;BME280;2386;42.138;24.746;2023-08-12T05:45:15;100038.53;;;22.59;67.62
4745;BME280;2386;42.138;24.746;2023-08-12T05:47:40;100037.31;;;22.66;67.13
4745;BME280;2386;42.138;24.746;2023-08-12T05:50:06;100037.03;;;22.67;67.41
4745;BME280;2386;42.138;24.746;2023-08-12T05:52:32;100028.13;;;22.70;66.99
4745;BME280;2386;42.138;24.746;2023-08-12T05:54:58;100030.91;;;22.70;67.56
4745;BME280;2386;42.138;24.746;2023-08-12T05:57:23;100031.34;;;22.77;67.56
4745;BME280;2386;42.138;24.746;2023-08-12T05:59:48;100017.59;;;22.72;67.16
4745;BME280;2386;42.138;24.746;2023-08-12T06:02:14;100028.81;;;22.62;67.89
4745;BME280;2386;42.138;24.746;2023-08-12T06:04:39;100025.97;;;22.67;67.77
4745;BME280;2386;42.138;24.746;2023-08-12T06:07:05;100014.38;;;22.65;67.62
4745;BME280;2386;42.138;24.746;2023-08-12T06:09:30;100017.38;;;22.69;66.95
4745;BME280;2386;42.138;24.746;2023-08-12T06:11:56;100025.38;;;22.70;67.30
4745;BME280;2386;42.138;24.746;2023-08-12T06:14:21;100014.72;;;22.77;66.98
4745;BME280;2386;42.138;24.746;2023-08-12T06:16:46;100020.53;;;22.81;66.68
4745;BME280;2386;42.138;24.746;2023-08-12T06:19:12;100015.13;;;22.89;66.10
4745;BME280;2386;42.138;24.746;2023-08-12T06:21:40;100022.13;;;23.01;65.07
4745;BME280;2386;42.138;24.746;2023-08-12T06:24:06;100010.53;;;22.99;65.53
4745;BME280;2386;42.138;24.746;2023-08-12T06:26:31;100001.19;;;22.94;65.58
4745;BME280;2386;42.138;24.746;2023-08-12T06:28:57;100004.28;;;23.07;65.02
4745;BME280;2386;42.138;24.746;2023-08-12T06:31:23;100005.63;;;23.09;64.39
4745;BME280;2386;42.138;24.746;2023-08-12T06:33:48;100014.38;;;23.30;63.47
4745;BME280;2386;42.138;24.746;2023-08-12T06:36:13;100011.19;;;23.37;62.82
4745;BME280;2386;42.138;24.746;2023-08-12T06:38:39;100009.38;;;23.46;62.27
4745;BME280;2386;42.138;24.746;2023-08-12T06:41:04;99996.75;;;23.40;62.15
4745;BME280;2386;42.138;24.746;2023-08-12T06:43:30;99993.78;;;23.50;61.65
4745;BME280;2386;42.138;24.746;2023-08-12T06:45:55;100006.69;;;23.82;61.02
4745;BME280;2386;42.138;24.746;2023-08-12T06:48:21;100010.28;;;23.96;59.46
4745;BME280;2386;42.138;24.746;2023-08-12T06:50:53;100016.91;;;24.22;58.51
4745;BME280;2386;42.138;24.746;2023-08-12T06:53:18;100004.38;;;24.39;57.38
4745;BME280;2386;42.138;24.746;2023-08-12T06:55:44;100008.78;;;24.62;55.97
4745;BME280;2386;42.138;24.746;2023-08-12T06:58:10;100004.00;;;24.76;55.58
4745;BME280;2386;42.138;24.746;2023-08-12T07:00:36;99998.00;;;24.83;55.29
4745;BME280;2386;42.138;24.746;2023-08-12T07:03:01;100002.47;;;24.93;53.92
4745;BME280;2386;42.138;24.746;2023-08-12T07:05:27;99999.97;;;25.05;54.08
4745;BME280;2386;42.138;24.746;2023-08-12T07:07:52;99993.28;;;25.06;51.64
4745;BME280;2386;42.138;24.746;2023-08-12T07:10:18;99995.59;;;25.12;51.97
4745;BME280;2386;42.138;24.746;2023-08-12T07:12:43;99988.78;;;25.18;51.58
4745;BME280;2386;42.138;24.746;2023-08-12T07:18:30;99994.34;;;25.27;50.15
4745;BME280;2386;42.138;24.746;2023-08-12T07:20:56;99988.16;;;25.30;49.40
4745;BME280;2386;42.138;24.746;2023-08-12T07:23:23;99996.53;;;25.39;49.18
4745;BME280;2386;42.138;24.746;2023-08-12T07:25:49;99997.22;;;25.44;48.22
4745;BME280;2386;42.138;24.746;2023-08-12T07:28:15;99995.38;;;25.40;48.43
4745;BME280;2386;42.138;24.746;2023-08-12T07:30:40;99992.28;;;25.41;48.24
4745;BME280;2386;42.138;24.746;2023-08-12T07:33:07;99996.25;;;25.49;48.12
4745;BME280;2386;42.138;24.746;2023-08-12T07:35:33;99989.72;;;25.53;48.12
4745;BME280;2386;42.138;24.746;2023-08-12T07:37:58;99992.38;;;25.59;48.38
4745;BME280;2386;42.138;24.746;2023-08-12T07:40:24;99989.44;;;25.64;47.86
4745;BME280;2386;42.138;24.746;2023-08-12T07:42:49;99982.13;;;25.68;47.59
4745;BME280;2386;42.138;24.746;2023-08-12T07:45:15;99982.47;;;25.75;47.55
4745;BME280;2386;42.138;24.746;2023-08-12T07:47:40;99967.13;;;25.77;47.84
4745;BME280;2386;42.138;24.746;2023-08-12T07:50:06;99978.75;;;25.88;46.61
4745;BME280;2386;42.138;24.746;2023-08-12T07:52:32;99976.47;;;25.90;46.46
4745;BME280;2386;42.138;24.746;2023-08-12T07:54:57;99975.00;;;25.93;46.78
4745;BME280;2386;42.138;24.746;2023-08-12T07:57:22;99978.44;;;25.98;46.77
4745;BME280;2386;42.138;24.746;2023-08-12T07:59:50;99975.16;;;26.05;46.72
4745;BME280;2386;42.138;24.746;2023-08-12T08:02:16;99968.13;;;26.07;46.11
4745;BME280;2386;42.138;24.746;2023-08-12T08:04:41;99968.97;;;26.16;45.74
4745;BME280;2386;42.138;24.746;2023-08-12T08:07:06;99977.16;;;26.22;45.39
4745;BME280;2386;42.138;24.746;2023-08-12T08:09:32;99968.81;;;26.30;45.83
4745;BME280;2386;42.138;24.746;2023-08-12T08:11:58;99966.06;;;26.39;45.95
4745;BME280;2386;42.138;24.746;2023-08-12T08:14:25;99962.94;;;26.40;45.41
4745;BME280;2386;42.138;24.746;2023-08-12T08:16:50;99967.53;;;26.54;45.23
4745;BME280;2386;42.138;24.746;2023-08-12T08:19:16;99962.59;;;26.59;44.47
4745;BME280;2386;42.138;24.746;2023-08-12T08:21:44;99968.00;;;26.64;44.74
4745;BME280;2386;42.138;24.746;2023-08-12T08:24:12;99960.97;;;26.67;43.95
4745;BME280;2386;42.138;24.746;2023-08-12T08:26:39;99949.00;;;26.66;44.11
4745;BME280;2386;42.138;24.746;2023-08-12T08:29:05;99955.66;;;26.82;44.09
4745;BME280;2386;42.138;24.746;2023-08-12T08:31:31;99955.97;;;26.90;43.75
4745;BME280;2386;42.138;24.746;2023-08-12T08:33:57;99966.31;;;26.98;43.78
4745;BME280;2386;42.138;24.746;2023-08-12T08:36:22;99957.13;;;27.06;43.30
4745;BME280;2386;42.138;24.746;2023-08-12T08:38:48;99961.84;;;27.14;42.14
4745;BME280;2386;42.138;24.746;2023-08-12T08:41:16;99957.41;;;27.22;41.38
4745;BME280;2386;42.138;24.746;2023-08-12T08:43:42;99948.84;;;27.27;42.43
4745;BME280;2386;42.138;24.746;2023-08-12T08:46:10;99944.59;;;27.29;40.51
4745;BME280;2386;42.138;24.746;2023-08-12T08:48:38;99947.22;;;27.26;41.10
4745;BME280;2386;42.138;24.746;2023-08-12T08:51:05;99940.16;;;27.28;41.80
4745;BME280;2386;42.138;24.746;2023-08-12T08:53:30;99948.81;;;27.35;41.19
4745;BME280;2386;42.138;24.746;2023-08-12T08:55:56;99946.81;;;27.44;41.16
4745;BME280;2386;42.138;24.746;2023-08-12T08:58:22;99930.56;;;27.46;41.04
4745;BME280;2386;42.138;24.746;2023-08-12T09:00:48;99933.38;;;27.46;40.73
4745;BME280;2386;42.138;24.746;2023-08-12T09:03:14;99927.00;;;27.37;40.31
4745;BME280;2386;42.138;24.746;2023-08-12T09:05:41;99926.81;;;27.42;40.52
4745;BME280;2386;42.138;24.746;2023-08-12T09:08:08;99930.69;;;27.50;40.70
4745;BME280;2386;42.138;24.746;2023-08-12T09:10:38;99920.00;;;27.61;41.01
4745;BME280;2386;42.138;24.746;2023-08-12T09:13:08;99914.56;;;27.64;41.14
4745;BME280;2386;42.138;24.746;2023-08-12T09:15:34;99913.84;;;27.76;41.70
4745;BME280;2386;42.138;24.746;2023-08-12T09:18:00;99907.44;;;27.75;40.28
4745;BME280;2386;42.138;24.746;2023-08-12T09:20:25;99916.84;;;27.92;39.33
4745;BME280;2386;42.138;24.746;2023-08-12T09:22:58;99909.78;;;27.94;39.65
4745;BME280;2386;42.138;24.746;2023-08-12T09:25:27;99900.72;;;27.97;39.54
4745;BME280;2386;42.138;24.746;2023-08-12T09:27:54;99904.75;;;28.08;38.57
4745;BME280;2386;42.138;24.746;2023-08-12T09:30:20;99898.84;;;28.10;38.51
4745;BME280;2386;42.138;24.746;2023-08-12T10:13:28;99866.78;;;28.82;37.05
4745;BME280;2386;42.138;24.746;2023-08-12T10:15:54;99855.13;;;28.80;36.73
4745;BME280;2386;42.138;24.746;2023-08-12T10:18:22;99855.94;;;28.81;37.22
4745;BME280;2386;42.138;24.746;2023-08-12T10:20:47;99851.09;;;28.90;37.45
4745;BME280;2386;42.138;24.746;2023-08-12T10:23:17;99848.97;;;28.99;36.89
4745;BME280;2386;42.138;24.746;2023-08-12T10:25:46;99844.66;;;29.01;38.05
4745;BME280;2386;42.138;24.746;2023-08-12T10:28:18;99853.41;;;29.12;36.98
4745;BME280;2386;42.138;24.746;2023-08-12T10:30:44;99848.88;;;29.20;37.20
4745;BME280;2386;42.138;24.746;2023-08-12T10:33:10;99848.75;;;29.28;37.05
4745;BME280;2386;42.138;24.746;2023-08-12T10:38:07;99849.44;;;29.37;35.76
4745;BME280;2386;42.138;24.746;2023-08-12T10:40:33;99835.94;;;29.39;36.45
4745;BME280;2386;42.138;24.746;2023-08-12T10:42:59;99836.97;;;29.35;36.73
4745;BME280;2386;42.138;24.746;2023-08-12T10:45:52;99825.47;;;29.24;36.91
4745;BME280;2386;42.138;24.746;2023-08-12T10:48:23;99817.31;;;29.31;37.12
4745;BME280;2386;42.138;24.746;2023-08-12T10:50:52;99820.56;;;29.33;36.24
4745;BME280;2386;42.138;24.746;2023-08-12T10:53:26;99822.44;;;29.41;38.91
4745;BME280;2386;42.138;24.746;2023-08-12T10:56:02;99816.97;;;29.45;35.09
4745;BME280;2386;42.138;24.746;2023-08-12T10:58:46;99823.72;;;29.56;36.49
4745;BME280;2386;42.138;24.746;2023-08-12T11:01:23;99812.88;;;29.55;36.82
4745;BME280;2386;42.138;24.746;2023-08-12T11:03:48;99819.97;;;29.64;35.53
4745;BME280;2386;42.138;24.746;2023-08-12T11:06:14;99814.94;;;29.70;36.16
4745;BME280;2386;42.138;24.746;2023-08-12T11:08:52;99802.97;;;29.85;35.53
4745;BME280;2386;42.138;24.746;2023-08-12T11:11:23;99809.22;;;30.06;35.83
4745;BME280;2386;42.138;24.746;2023-08-12T11:13:58;99796.44;;;30.21;34.90
4745;BME280;2386;42.138;24.746;2023-08-12T11:16:37;99793.94;;;30.32;34.06
4745;BME280;2386;42.138;24.746;2023-08-12T11:19:03;99802.25;;;30.44;33.52
4745;BME280;2386;42.138;24.746;2023-08-12T11:21:29;99791.44;;;30.58;33.26
4745;BME280;2386;42.138;24.746;2023-08-12T11:23:55;99786.03;;;30.65;34.04
4745;BME280;2386;42.138;24.746;2023-08-12T11:26:23;99791.34;;;30.86;34.10
4745;BME280;2386;42.138;24.746;2023-08-12T11:28:49;99791.78;;;31.04;32.80
4745;BME280;2386;42.138;24.746;2023-08-12T11:31:15;99791.78;;;31.20;33.24
4745;BME280;2386;42.138;24.746;2023-08-12T11:33:41;99786.13;;;31.35;32.75
4745;BME280;2386;42.138;24.746;2023-08-12T11:36:07;99782.59;;;31.38;32.88
4745;BME280;2386;42.138;24.746;2023-08-12T11:38:32;99778.03;;;31.50;33.03
4745;BME280;2386;42.138;24.746;2023-08-12T11:41:00;99772.28;;;31.62;33.04
4745;BME280;2386;42.138;24.746;2023-08-12T11:43:26;99776.16;;;31.73;32.48
4745;BME280;2386;42.138;24.746;2023-08-12T11:45:51;99780.31;;;31.79;33.72
4745;BME280;2386;42.138;24.746;2023-08-12T11:48:17;99761.84;;;31.78;32.85
4745;BME280;2386;42.138;24.746;2023-08-12T11:50:42;99772.72;;;31.64;31.44
4745;BME280;2386;42.138;24.746;2023-08-12T11:53:10;99772.78;;;31.83;34.68
4745;BME280;2386;42.138;24.746;2023-08-12T11:55:36;99764.56;;;31.94;34.46
4745;BME280;2386;42.138;24.746;2023-08-12T11:58:01;99763.34;;;32.14;33.28
4745;BME280;2386;42.138;24.746;2023-08-12T12:00:47;99774.56;;;32.33;35.15
4745;BME280;2386;42.138;24.746;2023-08-12T12:03:13;99765.09;;;32.42;34.37
4745;BME280;2386;42.138;24.746;2023-08-12T12:05:39;99767.47;;;32.62;32.10
4745;BME280;2386;42.138;24.746;2023-08-12T12:08:04;99766.13;;;32.79;32.48
4745;BME280;2386;42.138;24.746;2023-08-12T12:10:32;99751.38;;;32.86;34.50
4745;BME280;2386;42.138;24.746;2023-08-12T12:12:59;99758.00;;;32.97;33.10
4745;BME280;2386;42.138;24.746;2023-08-12T12:15:25;99761.34;;;33.06;32.48
4745;BME280;2386;42.138;24.746;2023-08-12T12:17:51;99762.25;;;34.37;30.33
4745;BME280;2386;42.138;24.746;2023-08-12T12:20:17;99756.81;;;35.82;27.61
4745;BME280;2386;42.138;24.746;2023-08-12T12:22:44;99748.19;;;38.65;28.21
4745;BME280;2386;42.138;24.746;2023-08-12T12:25:12;99760.25;;;40.77;24.04
4745;BME280;2386;42.138;24.746;2023-08-12T12:27:38;99771.59;;;41.24;22.45
4745;BME280;2386;42.138;24.746;2023-08-12T12:30:09;99761.03;;;40.78;21.98
4745;BME280;2386;42.138;24.746;2023-08-12T12:32:34;99761.53;;;41.39;22.28
4745;BME280;2386;42.138;24.746;2023-08-12T12:35:00;99760.94;;;41.28;22.67
4745;BME280;2386;42.138;24.746;2023-08-12T12:37:25;99751.69;;;41.44;22.88
4745;BME280;2386;42.138;24.746;2023-08-12T12:39:51;99753.06;;;41.12;21.92
4745;BME280;2386;42.138;24.746;2023-08-12T12:42:16;99757.53;;;39.82;23.17
4745;BME280;2386;42.138;24.746;2023-08-12T12:44:43;99745.13;;;38.90;25.40
4745;BME280;2386;42.138;24.746;2023-08-12T12:47:08;99738.53;;;37.93;26.75
4745;BME280;2386;42.138;24.746;2023-08-12T12:49:36;99741.25;;;37.06;26.92
4745;BME280;2386;42.138;24.746;2023-08-12T12:52:01;99737.56;;;36.24;26.22
4745;BME280;2386;42.138;24.746;2023-08-12T12:54:27;99743.78;;;35.53;26.98
4745;BME280;2386;42.138;24.746;2023-08-12T12:56:52;99734.44;;;34.80;28.07
4745;BME280;2386;42.138;24.746;2023-08-12T12:59:18;99731.38;;;34.11;28.89
4745;BME280;2386;42.138;24.746;2023-08-12T13:01:43;99727.72;;;33.40;29.18
4745;BME280;2386;42.138;24.746;2023-08-12T13:04:08;99726.84;;;32.83;29.83
4745;BME280;2386;42.138;24.746;2023-08-12T13:06:34;99728.13;;;32.40;29.44
4745;BME280;2386;42.138;24.746;2023-08-12T13:09:00;99722.19;;;32.02;30.13
4745;BME280;2386;42.138;24.746;2023-08-12T13:11:27;99752.13;;;31.95;30.46
4745;BME280;2386;42.138;24.746;2023-08-12T13:13:53;99738.34;;;31.67;30.73
4745;BME280;2386;42.138;24.746;2023-08-12T13:16:19;99736.84;;;31.54;30.79
4745;BME280;2386;42.138;24.746;2023-08-12T13:18:45;99715.88;;;31.48;31.22
4745;BME280;2386;42.138;24.746;2023-08-12T13:21:10;99728.28;;;31.47;31.00
4745;BME280;2386;42.138;24.746;2023-08-12T13:23:35;99736.84;;;31.54;31.06
4745;BME280;2386;42.138;24.746;2023-08-12T13:26:01;99710.13;;;31.41;30.88
4745;BME280;2386;42.138;24.746;2023-08-12T13:28:26;99726.28;;;31.66;31.68
4745;BME280;2386;42.138;24.746;2023-08-12T13:30:53;99726.25;;;31.82;31.16
4745;BME280;2386;42.138;24.746;2023-08-12T13:33:18;99722.31;;;31.87;30.99
4745;BME280;2386;42.138;24.746;2023-08-12T13:35:44;99724.75;;;31.88;30.69
4745;BME280;2386;42.138;24.746;2023-08-12T13:38:10;99722.84;;;32.15;30.43
4745;BME280;2386;42.138;24.746;2023-08-12T13:40:35;99718.03;;;32.16;30.00
4745;BME280;2386;42.138;24.746;2023-08-12T13:43:04;99720.63;;;32.24;30.37
4745;BME280;2386;42.138;24.746;2023-08-12T13:45:29;99729.19;;;32.54;30.27
4745;BME280;2386;42.138;24.746;2023-08-12T13:47:58;99727.16;;;32.78;29.99
4745;BME280;2386;42.138;24.746;2023-08-12T13:50:23;99727.06;;;33.23;30.34
4745;BME280;2386;42.138;24.746;2023-08-12T13:52:49;99725.19;;;33.64;29.91
4745;BME280;2386;42.138;24.746;2023-08-12T13:55:20;99717.00;;;33.82;29.44
4745;BME280;2386;42.138;24.746;2023-08-12T13:57:50;99728.03;;;33.98;29.77
4745;BME280;2386;42.138;24.746;2023-08-12T14:00:21;99705.47;;;33.94;28.41
4745;BME280;2386;42.138;24.746;2023-08-12T14:02:47;99716.91;;;34.12;28.51
4745;BME280;2386;42.138;24.746;2023-08-12T14:05:14;99723.47;;;34.27;28.88
4745;BME280;2386;42.138;24.746;2023-08-12T14:07:44;99722.88;;;34.44;28.81